createdAt,value
2019-03-04T00:00:36.370Z,988.73
2019-03-04T00:01:43.357Z,988.80
2019-03-04T00:02:36.364Z,988.87
2019-03-04T00:03:36.337Z,988.85
2019-03-04T00:04:36.315Z,988.91
2019-03-04T00:05:36.300Z,988.79
2019-03-04T00:06:36.292Z,988.88
2019-03-04T00:07:36.284Z,988.98
2019-03-04T00:08:36.278Z,989.01
2019-03-04T00:09:36.258Z,989.01
2019-03-04T00:10:36.266Z,988.99
2019-03-04T00:11:36.235Z,989.02
2019-03-04T00:12:36.222Z,989.09
2019-03-04T00:13:36.236Z,989.13
2019-03-04T00:14:36.204Z,989.04
2019-03-04T00:15:36.189Z,988.94
2019-03-04T00:16:36.181Z,988.93
2019-03-04T00:17:36.165Z,988.87
2019-03-04T00:18:36.293Z,988.93
2019-03-04T00:19:36.145Z,988.82
2019-03-04T00:20:36.154Z,988.83
2019-03-04T00:21:36.121Z,988.87
2019-03-04T00:22:36.110Z,988.84
2019-03-04T00:23:36.174Z,988.74
2019-03-04T00:24:36.098Z,988.74
2019-03-04T00:25:36.078Z,988.73
2019-03-04T00:26:36.081Z,988.75
2019-03-04T00:27:36.054Z,988.74
2019-03-04T00:28:36.056Z,988.72
2019-03-04T00:29:36.035Z,988.69
2019-03-04T00:30:36.023Z,988.67
2019-03-04T00:31:36.016Z,988.67
2019-03-04T00:32:35.999Z,988.66
2019-03-04T00:33:36.014Z,988.64
2019-03-04T00:34:35.977Z,988.69
2019-03-04T00:35:35.966Z,988.73
2019-03-04T00:36:36.015Z,988.71
2019-03-04T00:37:35.954Z,988.60
2019-03-04T00:38:35.972Z,988.58
2019-03-04T00:39:35.930Z,988.53
2019-03-04T00:40:35.911Z,988.48
2019-03-04T00:41:35.916Z,988.46
2019-03-04T00:42:35.892Z,988.44
2019-03-04T00:43:35.886Z,988.48
2019-03-04T00:44:35.928Z,988.46
2019-03-04T00:45:35.854Z,988.41
2019-03-04T00:46:35.856Z,988.40
2019-03-04T00:47:35.837Z,988.40
2019-03-04T00:48:35.828Z,988.40
2019-03-04T00:49:35.844Z,988.34
2019-03-04T00:50:35.804Z,988.34
2019-03-04T00:51:35.792Z,988.30
2019-03-04T00:52:35.779Z,988.19
2019-03-04T00:53:35.764Z,988.21
2019-03-04T00:54:35.774Z,988.15
2019-03-04T00:55:35.746Z,988.08
2019-03-04T00:56:35.760Z,988.09
2019-03-04T00:57:35.719Z,988.08
2019-03-04T00:58:35.714Z,988.07
2019-03-04T00:59:35.710Z,988.18
2019-03-04T01:00:35.686Z,987.97
2019-03-04T01:01:35.675Z,987.94
2019-03-04T01:02:35.675Z,987.97
2019-03-04T01:03:35.656Z,987.91
2019-03-04T01:04:35.656Z,987.78
2019-03-04T01:05:35.632Z,987.78
2019-03-04T01:06:35.619Z,987.74
2019-03-04T01:07:35.609Z,987.66
2019-03-04T01:08:35.604Z,987.60
2019-03-04T01:09:35.686Z,987.55
2019-03-04T01:10:35.576Z,987.51
2019-03-04T01:11:35.570Z,987.49
2019-03-04T01:12:35.553Z,987.48
2019-03-04T01:13:35.541Z,987.42
2019-03-04T01:14:35.596Z,987.39
2019-03-04T01:15:35.525Z,987.35
2019-03-04T01:16:35.511Z,987.31
2019-03-04T01:17:35.498Z,987.23
2019-03-04T01:18:35.487Z,987.17
2019-03-04T01:19:35.509Z,987.16
2019-03-04T01:20:35.463Z,987.13
2019-03-04T01:21:35.455Z,987.14
2019-03-04T01:22:35.450Z,987.12
2019-03-04T01:23:35.451Z,987.11
2019-03-04T01:24:35.443Z,987.09
2019-03-04T01:25:35.408Z,987.05
2019-03-04T01:26:35.397Z,987.02
2019-03-04T01:27:35.386Z,986.87
2019-03-04T01:28:35.382Z,986.73
2019-03-04T01:29:35.393Z,986.79
2019-03-04T01:30:35.377Z,986.82
2019-03-04T01:31:35.351Z,986.77
2019-03-04T01:32:35.353Z,986.80
2019-03-04T01:33:35.325Z,986.75
2019-03-04T01:34:35.326Z,986.70
2019-03-04T01:35:35.297Z,986.73
2019-03-04T01:36:35.287Z,986.69
2019-03-04T01:37:35.278Z,986.66
2019-03-04T01:38:35.310Z,986.64
2019-03-04T01:39:35.267Z,986.68
2019-03-04T01:40:35.271Z,986.61
2019-03-04T01:41:35.228Z,986.68
2019-03-04T01:42:35.219Z,986.61
2019-03-04T01:43:35.213Z,986.66
2019-03-04T01:44:35.315Z,986.79
2019-03-04T01:45:35.211Z,986.77
2019-03-04T01:46:35.174Z,986.85
2019-03-04T01:47:35.168Z,986.81
2019-03-04T01:48:35.179Z,986.68
2019-03-04T01:49:35.149Z,986.66
2019-03-04T01:50:35.144Z,986.65
2019-03-04T01:51:35.163Z,986.62
2019-03-04T01:52:35.109Z,986.60
2019-03-04T01:53:35.095Z,986.53
2019-03-04T01:54:35.089Z,986.52
2019-03-04T01:55:35.131Z,986.50
2019-03-04T01:56:35.083Z,986.58
2019-03-04T01:57:35.051Z,986.56
2019-03-04T01:58:35.073Z,986.54
2019-03-04T01:59:35.032Z,986.55
2019-03-04T02:00:35.030Z,986.48
2019-03-04T02:01:35.011Z,986.52
2019-03-04T02:02:34.998Z,986.49
2019-03-04T02:03:34.984Z,986.50
2019-03-04T02:04:34.973Z,986.44
2019-03-04T02:05:34.993Z,986.41
2019-03-04T02:06:34.964Z,986.38
2019-03-04T02:07:34.943Z,986.33
2019-03-04T02:08:34.931Z,986.35
2019-03-04T02:09:34.918Z,986.31
2019-03-04T02:10:34.918Z,986.28
2019-03-04T02:11:34.899Z,986.30
2019-03-04T02:12:34.894Z,986.27
2019-03-04T02:13:34.886Z,986.22
2019-03-04T02:14:34.875Z,986.16
2019-03-04T02:15:34.863Z,986.17
2019-03-04T02:16:34.839Z,986.12
2019-03-04T02:17:34.827Z,986.14
2019-03-04T02:18:34.828Z,986.03
2019-03-04T02:19:34.809Z,985.93
2019-03-04T02:20:34.817Z,985.92
2019-03-04T02:21:34.785Z,985.92
2019-03-04T02:22:34.773Z,985.85
2019-03-04T02:23:34.761Z,985.86
2019-03-04T02:24:34.754Z,985.90
2019-03-04T02:25:34.752Z,985.75
2019-03-04T02:26:34.736Z,985.70
2019-03-04T02:27:34.729Z,985.67
2019-03-04T02:28:34.708Z,985.57
2019-03-04T02:29:34.701Z,985.47
2019-03-04T02:30:34.699Z,985.47
2019-03-04T02:31:34.687Z,985.37
2019-03-04T02:32:34.668Z,985.31
2019-03-04T02:33:34.650Z,985.23
2019-03-04T02:34:34.647Z,985.27
2019-03-04T02:35:34.642Z,985.40
2019-03-04T02:36:34.626Z,985.31
2019-03-04T02:37:34.605Z,985.29
2019-03-04T02:38:34.597Z,985.27
2019-03-04T02:39:34.598Z,985.31
2019-03-04T02:40:34.601Z,985.25
2019-03-04T02:41:34.579Z,985.19
2019-03-04T02:42:34.555Z,985.20
2019-03-04T02:43:34.539Z,985.14
2019-03-04T02:44:34.533Z,985.17
2019-03-04T02:45:34.529Z,985.15
2019-03-04T02:46:34.521Z,985.11
2019-03-04T02:47:34.496Z,985.00
2019-03-04T02:48:34.483Z,984.97
2019-03-04T02:49:34.470Z,984.98
2019-03-04T02:50:34.471Z,985.02
2019-03-04T02:51:34.451Z,985.05
2019-03-04T02:52:34.464Z,985.05
2019-03-04T02:53:34.432Z,985.05
2019-03-04T02:54:34.430Z,985.11
2019-03-04T02:55:34.416Z,985.15
2019-03-04T02:56:34.394Z,985.12
2019-03-04T02:57:34.398Z,984.94
2019-03-04T02:58:34.372Z,984.85
2019-03-04T02:59:34.400Z,984.60
2019-03-04T03:00:34.362Z,984.51
2019-03-04T03:01:34.340Z,984.56
2019-03-04T03:02:34.349Z,984.58
2019-03-04T03:03:34.323Z,984.55
2019-03-04T03:04:34.326Z,984.60
2019-03-04T03:05:34.308Z,984.66
2019-03-04T03:06:34.312Z,984.68
2019-03-04T03:07:34.274Z,984.66
2019-03-04T03:08:34.261Z,984.55
2019-03-04T03:09:34.276Z,984.49
2019-03-04T03:10:34.253Z,984.50
2019-03-04T03:11:34.254Z,984.54
2019-03-04T03:12:34.216Z,984.48
2019-03-04T03:13:34.203Z,984.46
2019-03-04T03:14:34.197Z,984.37
2019-03-04T03:15:34.213Z,984.31
2019-03-04T03:16:34.177Z,984.26
2019-03-04T03:17:34.180Z,984.28
2019-03-04T03:18:34.148Z,984.29
2019-03-04T03:19:34.138Z,984.29
2019-03-04T03:20:34.144Z,984.17
2019-03-04T03:21:34.117Z,984.15
2019-03-04T03:22:34.166Z,984.12
2019-03-04T03:23:34.109Z,984.12
2019-03-04T03:24:34.091Z,984.04
2019-03-04T03:25:34.400Z,984.08
2019-03-04T03:26:34.071Z,984.11
2019-03-04T03:27:34.069Z,984.09
2019-03-04T03:28:34.039Z,984.18
2019-03-04T03:29:34.031Z,984.15
2019-03-04T03:30:34.014Z,984.13
2019-03-04T03:31:34.020Z,984.15
2019-03-04T03:32:33.999Z,984.12
2019-03-04T03:33:33.994Z,984.11
2019-03-04T03:34:33.981Z,984.10
2019-03-04T03:35:34.002Z,984.16
2019-03-04T03:36:33.987Z,984.13
2019-03-04T03:37:33.949Z,984.06
2019-03-04T03:38:33.941Z,984.05
2019-03-04T03:39:33.921Z,983.99
2019-03-04T03:40:33.941Z,983.94
2019-03-04T03:41:33.904Z,983.92
2019-03-04T03:42:33.881Z,983.93
2019-03-04T03:43:33.894Z,983.74
2019-03-04T03:44:33.861Z,983.68
2019-03-04T03:45:33.847Z,983.67
2019-03-04T03:46:33.848Z,983.65
2019-03-04T03:47:33.825Z,983.61
2019-03-04T03:48:33.822Z,983.69
2019-03-04T03:49:33.837Z,983.54
2019-03-04T03:50:33.799Z,983.57
2019-03-04T03:51:33.803Z,983.51
2019-03-04T03:52:33.772Z,983.52
2019-03-04T03:53:33.757Z,983.46
2019-03-04T03:54:33.755Z,983.44
2019-03-04T03:55:33.815Z,983.40
2019-03-04T03:56:33.738Z,983.33
2019-03-04T03:57:34.564Z,983.29
2019-03-04T03:58:33.705Z,983.19
2019-03-04T03:59:33.692Z,983.19
2019-03-04T04:00:33.687Z,983.15
2019-03-04T04:01:33.691Z,983.14
2019-03-04T04:02:33.662Z,983.05
2019-03-04T04:03:33.666Z,982.99
2019-03-04T04:04:33.668Z,982.90
2019-03-04T04:05:33.639Z,982.87
2019-03-04T04:06:33.625Z,982.76
2019-03-04T04:07:33.609Z,982.69
2019-03-04T04:08:33.658Z,982.42
2019-03-04T04:09:33.588Z,982.31
2019-03-04T04:10:33.597Z,982.29
2019-03-04T04:11:33.637Z,982.36
2019-03-04T04:12:33.568Z,982.38
2019-03-04T04:13:33.556Z,982.34
2019-03-04T04:14:33.524Z,982.42
2019-03-04T04:15:33.585Z,982.37
2019-03-04T04:16:33.529Z,982.26
2019-03-04T04:17:33.493Z,982.19
2019-03-04T04:18:33.503Z,982.35
2019-03-04T04:19:33.470Z,982.44
2019-03-04T04:20:33.457Z,982.62
2019-03-04T04:21:33.525Z,982.67
2019-03-04T04:22:33.439Z,982.56
2019-03-04T04:23:33.425Z,982.40
2019-03-04T04:24:33.416Z,982.23
2019-03-04T04:25:33.406Z,982.24
2019-03-04T04:26:33.437Z,982.20
2019-03-04T04:27:33.395Z,982.27
2019-03-04T04:28:33.370Z,982.26
2019-03-04T04:29:33.357Z,982.06
2019-03-04T04:30:33.351Z,982.01
2019-03-04T04:31:33.349Z,981.86
2019-03-04T04:32:33.322Z,981.71
2019-03-04T04:33:33.317Z,981.64
2019-03-04T04:34:33.352Z,981.69
2019-03-04T04:35:33.299Z,981.90
2019-03-04T04:36:33.381Z,981.85
2019-03-04T04:37:33.268Z,981.80
2019-03-04T04:38:33.263Z,981.80
2019-03-04T04:39:33.287Z,981.80
2019-03-04T04:40:33.292Z,981.83
2019-03-04T04:41:33.259Z,981.87
2019-03-04T04:42:33.213Z,981.85
2019-03-04T04:43:34.060Z,981.83
2019-03-04T04:44:33.221Z,981.70
2019-03-04T04:45:33.236Z,981.71
2019-03-04T04:46:33.225Z,981.68
2019-03-04T04:47:33.166Z,981.65
2019-03-04T04:48:33.143Z,981.56
2019-03-04T04:49:33.163Z,981.38
2019-03-04T04:50:33.136Z,981.33
2019-03-04T04:51:33.118Z,981.18
2019-03-04T04:52:33.113Z,981.13
2019-03-04T04:53:33.145Z,981.15
2019-03-04T04:54:33.078Z,981.11
2019-03-04T04:55:33.188Z,980.99
2019-03-04T04:56:33.183Z,981.00
2019-03-04T04:57:33.101Z,980.89
2019-03-04T04:58:33.039Z,980.78
2019-03-04T04:59:33.043Z,980.67
2019-03-04T05:00:33.052Z,980.52
2019-03-04T05:01:33.027Z,980.50
2019-03-04T05:02:33.002Z,980.71
2019-03-04T05:03:32.999Z,980.60
2019-03-04T05:04:32.977Z,980.55
2019-03-04T05:05:32.962Z,980.80
2019-03-04T05:06:32.954Z,980.83
2019-03-04T05:07:33.003Z,980.76
2019-03-04T05:08:32.939Z,980.89
2019-03-04T05:09:32.960Z,980.96
2019-03-04T05:10:32.984Z,981.01
2019-03-04T05:11:32.891Z,981.06
2019-03-04T05:12:32.909Z,980.96
2019-03-04T05:13:32.865Z,980.88
2019-03-04T05:14:32.871Z,980.96
2019-03-04T05:15:32.849Z,981.01
2019-03-04T05:16:32.833Z,980.96
2019-03-04T05:17:32.837Z,980.96
2019-03-04T05:18:32.810Z,981.03
2019-03-04T05:19:32.831Z,981.01
2019-03-04T05:20:32.789Z,980.86
2019-03-04T05:21:32.787Z,981.00
2019-03-04T05:22:32.801Z,980.96
2019-03-04T05:23:32.757Z,980.88
2019-03-04T05:24:32.745Z,980.91
2019-03-04T05:25:32.734Z,980.88
2019-03-04T05:26:32.743Z,980.84
2019-03-04T05:27:32.762Z,980.85
2019-03-04T05:28:32.698Z,980.84
2019-03-04T05:29:32.694Z,980.72
2019-03-04T05:30:32.688Z,980.78
2019-03-04T05:31:32.669Z,980.78
2019-03-04T05:32:32.670Z,980.73
2019-03-04T05:33:32.665Z,980.66
2019-03-04T05:34:32.631Z,980.79
2019-03-04T05:35:32.639Z,980.62
2019-03-04T05:36:32.611Z,980.77
2019-03-04T05:37:32.611Z,980.73
2019-03-04T05:38:32.588Z,980.74
2019-03-04T05:39:32.577Z,980.58
2019-03-04T05:40:32.592Z,980.67
2019-03-04T05:41:32.553Z,980.46
2019-03-04T05:42:32.553Z,980.46
2019-03-04T05:43:32.531Z,980.26
2019-03-04T05:44:32.524Z,980.30
2019-03-04T05:45:32.541Z,980.31
2019-03-04T05:46:32.509Z,980.18
2019-03-04T05:47:32.515Z,980.06
2019-03-04T05:48:32.486Z,980.33
2019-03-04T05:49:32.464Z,980.32
2019-03-04T05:50:32.454Z,980.36
2019-03-04T05:51:32.448Z,980.38
2019-03-04T05:52:32.450Z,980.42
2019-03-04T05:53:32.420Z,980.37
2019-03-04T05:54:32.440Z,980.38
2019-03-04T05:55:32.400Z,980.40
2019-03-04T05:56:32.398Z,980.29
2019-03-04T05:57:32.422Z,980.22
2019-03-04T05:58:32.389Z,980.23
2019-03-04T05:59:32.353Z,980.33
2019-03-04T06:00:32.357Z,980.13
2019-03-04T06:01:32.337Z,980.05
2019-03-04T06:02:32.331Z,980.13
2019-03-04T06:03:32.349Z,980.12
2019-03-04T06:04:32.306Z,980.17
2019-03-04T06:05:32.293Z,980.07
2019-03-04T06:06:32.279Z,980.04
2019-03-04T06:07:32.299Z,980.29
2019-03-04T06:08:32.283Z,980.07
2019-03-04T06:09:32.240Z,980.04
2019-03-04T06:10:32.237Z,979.99
2019-03-04T06:11:32.221Z,979.97
2019-03-04T06:12:32.239Z,980.01
2019-03-04T06:13:32.209Z,979.92
2019-03-04T06:14:32.215Z,979.91
2019-03-04T06:15:32.175Z,979.90
2019-03-04T06:16:32.165Z,979.96
2019-03-04T06:17:32.152Z,979.83
2019-03-04T06:18:32.206Z,979.88
2019-03-04T06:19:32.166Z,979.79
2019-03-04T06:20:32.120Z,979.85
2019-03-04T06:21:32.127Z,979.71
2019-03-04T06:22:32.101Z,979.78
2019-03-04T06:23:32.099Z,979.78
2019-03-04T06:24:32.093Z,979.69
2019-03-04T06:25:32.104Z,979.80
2019-03-04T06:26:32.051Z,979.71
2019-03-04T06:27:32.043Z,979.74
2019-03-04T06:28:32.041Z,979.70
2019-03-04T06:29:32.028Z,979.71
2019-03-04T06:30:32.029Z,979.69
2019-03-04T06:31:31.996Z,979.59
2019-03-04T06:32:31.986Z,979.55
2019-03-04T06:33:32.031Z,979.45
2019-03-04T06:34:31.966Z,979.40
2019-03-04T06:35:31.960Z,979.28
2019-03-04T06:36:31.944Z,979.31
2019-03-04T06:37:31.929Z,979.15
2019-03-04T06:38:31.986Z,979.26
2019-03-04T06:39:31.924Z,979.26
2019-03-04T06:40:31.898Z,979.21
2019-03-04T06:41:31.945Z,979.40
2019-03-04T06:42:31.884Z,979.31
2019-03-04T06:43:31.873Z,979.32
2019-03-04T06:44:31.875Z,979.32
2019-03-04T06:45:31.860Z,979.31
2019-03-04T06:46:31.829Z,979.30
2019-03-04T06:47:31.818Z,979.34
2019-03-04T06:48:31.853Z,979.27
2019-03-04T06:49:31.802Z,979.31
2019-03-04T06:50:31.789Z,979.31
2019-03-04T06:51:31.777Z,979.25
2019-03-04T06:52:31.770Z,979.06
2019-03-04T06:53:31.797Z,979.20
2019-03-04T06:54:31.784Z,979.20
2019-03-04T06:55:31.728Z,979.22
2019-03-04T06:56:31.719Z,979.09
2019-03-04T06:57:31.734Z,979.03
2019-03-04T06:58:31.716Z,978.98
2019-03-04T06:59:31.722Z,979.19
2019-03-04T07:00:31.687Z,979.21
2019-03-04T07:01:31.664Z,979.11
2019-03-04T07:02:31.662Z,979.07
2019-03-04T07:03:31.669Z,979.16
2019-03-04T07:04:31.641Z,979.24
2019-03-04T07:05:31.622Z,979.16
2019-03-04T07:06:31.607Z,979.15
2019-03-04T07:07:31.605Z,979.25
2019-03-04T07:08:31.618Z,979.27
2019-03-04T07:09:31.579Z,979.32
2019-03-04T07:10:31.563Z,979.66
2019-03-04T07:11:31.555Z,979.99
2019-03-04T07:12:31.538Z,980.74
2019-03-04T07:13:31.539Z,981.25
2019-03-04T07:14:31.526Z,981.42
2019-03-04T07:15:31.530Z,981.32
2019-03-04T07:16:32.232Z,981.11
2019-03-04T07:17:31.515Z,981.01
2019-03-04T07:18:31.502Z,981.12
2019-03-04T07:19:31.475Z,980.97
2019-03-04T07:20:31.524Z,981.16
2019-03-04T07:21:31.440Z,981.27
2019-03-04T07:22:31.430Z,981.24
2019-03-04T07:23:31.421Z,981.17
2019-03-04T07:24:31.416Z,981.13
2019-03-04T07:25:31.394Z,981.22
2019-03-04T07:26:31.393Z,981.35
2019-03-04T07:27:31.371Z,981.24
2019-03-04T07:28:31.363Z,981.46
2019-03-04T07:29:31.364Z,981.44
2019-03-04T07:30:31.344Z,981.57
2019-03-04T07:31:31.327Z,981.48
2019-03-04T07:32:31.324Z,981.55
2019-03-04T07:33:31.308Z,981.25
2019-03-04T07:34:31.307Z,981.26
2019-03-04T07:35:31.308Z,981.16
2019-03-04T07:36:31.292Z,981.17
2019-03-04T07:37:31.265Z,980.98
2019-03-04T07:38:31.250Z,980.98
2019-03-04T07:39:31.248Z,981.25
2019-03-04T07:40:31.227Z,981.00
2019-03-04T07:41:31.255Z,981.15
2019-03-04T07:42:31.400Z,981.09
2019-03-04T07:43:31.194Z,981.08
2019-03-04T07:44:31.207Z,980.87
2019-03-04T07:45:31.186Z,980.88
2019-03-04T07:46:31.795Z,980.91
2019-03-04T07:47:31.155Z,980.90
2019-03-04T07:48:31.140Z,980.85
2019-03-04T07:49:31.140Z,980.97
2019-03-04T07:50:31.114Z,980.75
2019-03-04T07:51:31.103Z,980.87
2019-03-04T07:52:31.113Z,980.83
2019-03-04T07:53:31.100Z,980.79
2019-03-04T07:54:31.095Z,980.73
2019-03-04T07:55:31.058Z,980.81
2019-03-04T07:56:31.052Z,980.85
2019-03-04T07:57:31.042Z,980.74
2019-03-04T07:58:31.030Z,980.75
2019-03-04T07:59:31.030Z,980.74
2019-03-04T08:00:31.007Z,980.75
2019-03-04T08:01:30.991Z,980.66
2019-03-04T08:02:30.983Z,980.75
2019-03-04T08:03:30.969Z,980.61
2019-03-04T08:04:30.970Z,980.68
2019-03-04T08:05:30.979Z,980.76
2019-03-04T08:06:30.943Z,980.69
2019-03-04T08:07:30.926Z,980.69
2019-03-04T08:08:30.919Z,980.68
2019-03-04T08:09:30.915Z,980.66
2019-03-04T08:10:30.891Z,980.50
2019-03-04T08:11:30.889Z,980.52
2019-03-04T08:12:30.871Z,980.57
2019-03-04T08:13:30.859Z,980.58
2019-03-04T08:14:30.859Z,980.59
2019-03-04T08:15:30.840Z,980.59
2019-03-04T08:16:30.837Z,980.61
2019-03-04T08:17:30.816Z,980.66
2019-03-04T08:18:30.802Z,980.65
2019-03-04T08:19:30.822Z,980.72
2019-03-04T08:20:30.795Z,980.68
2019-03-04T08:21:30.776Z,980.54
2019-03-04T08:22:30.767Z,980.71
2019-03-04T08:23:30.758Z,980.84
2019-03-04T08:24:30.736Z,980.79
2019-03-04T08:25:30.742Z,980.77
2019-03-04T08:26:30.716Z,980.86
2019-03-04T08:27:30.701Z,980.88
2019-03-04T08:28:30.697Z,980.83
2019-03-04T08:29:30.711Z,980.89
2019-03-04T08:30:30.683Z,980.79
2019-03-04T08:31:30.661Z,980.81
2019-03-04T08:32:30.645Z,980.81
2019-03-04T08:33:31.669Z,980.80
2019-03-04T08:34:31.469Z,980.68
2019-03-04T08:35:30.629Z,980.73
2019-03-04T08:36:30.601Z,980.71
2019-03-04T08:37:30.591Z,980.86
2019-03-04T08:38:30.581Z,980.81
2019-03-04T08:39:30.576Z,980.85
2019-03-04T08:40:30.572Z,980.83
2019-03-04T08:41:30.548Z,980.78
2019-03-04T08:42:30.549Z,980.64
2019-03-04T08:43:30.531Z,980.78
2019-03-04T08:44:31.178Z,980.73
2019-03-04T08:45:30.513Z,980.65
2019-03-04T08:46:30.490Z,980.73
2019-03-04T08:47:30.479Z,980.72
2019-03-04T08:48:30.470Z,980.65
2019-03-04T08:49:30.481Z,980.77
2019-03-04T08:50:30.466Z,980.70
2019-03-04T08:51:30.457Z,980.87
2019-03-04T08:52:30.425Z,980.78
2019-03-04T08:53:31.057Z,980.79
2019-03-04T08:54:30.418Z,980.83
2019-03-04T08:55:30.404Z,980.77
2019-03-04T08:56:30.389Z,981.00
2019-03-04T08:57:30.370Z,980.88
2019-03-04T08:58:30.356Z,980.98
2019-03-04T08:59:30.393Z,980.88
2019-03-04T09:00:30.391Z,980.98
2019-03-04T09:01:31.274Z,981.11
2019-03-04T09:02:30.335Z,980.99
2019-03-04T09:03:30.328Z,981.03
2019-03-04T09:04:30.296Z,980.99
2019-03-04T09:05:30.290Z,981.04
2019-03-04T09:06:30.272Z,981.01
2019-03-04T09:07:30.268Z,981.06
2019-03-04T09:08:30.245Z,981.02
2019-03-04T09:09:30.235Z,981.02
2019-03-04T09:10:30.262Z,980.92
2019-03-04T09:11:30.216Z,980.96
2019-03-04T09:12:30.201Z,981.00
2019-03-04T09:13:30.195Z,981.00
2019-03-04T09:14:30.179Z,981.09
2019-03-04T09:15:30.209Z,980.99
2019-03-04T09:16:30.177Z,980.87
2019-03-04T09:17:30.161Z,980.93
2019-03-04T09:18:32.023Z,980.99
2019-03-04T09:19:30.131Z,980.98
2019-03-04T09:20:30.132Z,980.98
2019-03-04T09:21:30.130Z,981.03
2019-03-04T09:22:30.114Z,981.06
2019-03-04T09:23:30.078Z,980.98
2019-03-04T09:24:30.166Z,981.00
2019-03-04T09:25:30.840Z,981.01
2019-03-04T09:26:30.044Z,980.90
2019-03-04T09:27:30.036Z,980.91
2019-03-04T09:28:30.021Z,980.91
2019-03-04T09:29:30.011Z,980.88
2019-03-04T09:30:30.012Z,980.87
2019-03-04T09:31:29.990Z,980.86
2019-03-04T09:32:29.976Z,980.88
2019-03-04T09:33:29.968Z,980.83
2019-03-04T09:34:29.956Z,980.90
2019-03-04T09:35:29.948Z,980.87
2019-03-04T09:36:29.947Z,980.84
2019-03-04T09:37:29.929Z,980.81
2019-03-04T09:38:29.920Z,980.80
2019-03-04T09:39:29.912Z,980.79
2019-03-04T09:40:29.891Z,980.65
2019-03-04T09:41:29.896Z,980.88
2019-03-04T09:42:29.866Z,980.77
2019-03-04T09:43:29.864Z,980.71
2019-03-04T09:44:29.843Z,980.77
2019-03-04T09:45:38.306Z,980.80
2019-03-04T09:46:30.850Z,980.69
2019-03-04T09:47:29.812Z,980.66
2019-03-04T09:48:29.860Z,980.64
2019-03-04T09:49:29.787Z,980.80
2019-03-04T09:50:29.780Z,980.78
2019-03-04T09:51:29.787Z,980.70
2019-03-04T09:52:29.754Z,981.02
2019-03-04T09:53:39.140Z,980.63
2019-03-04T09:54:30.732Z,980.66
2019-03-04T09:55:29.722Z,980.68
2019-03-04T09:56:29.727Z,980.65
2019-03-04T09:57:29.697Z,980.66
2019-03-04T09:58:29.693Z,980.68
2019-03-04T09:59:29.676Z,980.76
2019-03-04T10:00:29.666Z,980.62
2019-03-04T10:01:29.677Z,980.63
2019-03-04T10:02:29.651Z,980.65
2019-03-04T10:03:29.633Z,980.63
2019-03-04T10:04:29.636Z,980.66
2019-03-04T10:05:29.612Z,980.69
2019-03-04T10:06:29.630Z,980.64
2019-03-04T10:07:29.588Z,980.62
2019-03-04T10:08:32.906Z,980.48
2019-03-04T10:09:29.576Z,980.61
2019-03-04T10:10:29.565Z,980.68
2019-03-04T10:11:29.578Z,980.65
2019-03-04T10:12:29.534Z,980.66
2019-03-04T10:13:29.521Z,980.62
2019-03-04T10:14:29.509Z,980.65
2019-03-04T10:15:29.505Z,980.65
2019-03-04T10:16:29.499Z,980.74
2019-03-04T10:17:29.476Z,980.63
2019-03-04T10:18:29.464Z,980.67
2019-03-04T10:19:29.454Z,980.67
2019-03-04T10:20:29.444Z,980.59
2019-03-04T10:21:29.475Z,980.76
2019-03-04T10:22:29.433Z,980.64
2019-03-04T10:23:29.414Z,980.56
2019-03-04T10:24:29.397Z,980.64
2019-03-04T10:25:29.397Z,980.54
2019-03-04T10:26:29.393Z,980.63
2019-03-04T10:27:29.364Z,980.60
2019-03-04T10:28:29.358Z,980.71
2019-03-04T10:29:29.344Z,980.69
2019-03-04T10:30:29.332Z,980.62
2019-03-04T10:31:29.357Z,980.62
2019-03-04T10:32:29.320Z,980.73
2019-03-04T10:33:29.298Z,980.64
2019-03-04T10:34:29.308Z,980.63
2019-03-04T10:35:29.281Z,980.63
2019-03-04T10:36:29.267Z,980.77
2019-03-04T10:37:29.268Z,980.75
2019-03-04T10:38:29.255Z,980.84
2019-03-04T10:39:29.241Z,980.88
2019-03-04T10:40:29.218Z,980.94
2019-03-04T10:41:29.215Z,980.92
2019-03-04T10:42:29.209Z,980.96
2019-03-04T10:43:29.198Z,981.14
2019-03-04T10:44:29.178Z,981.03
2019-03-04T10:45:29.177Z,981.04
2019-03-04T10:46:29.152Z,981.09
2019-03-04T10:47:29.164Z,981.09
2019-03-04T10:48:29.131Z,981.22
2019-03-04T10:49:29.143Z,981.27
2019-03-04T10:50:29.114Z,981.25
2019-03-04T10:51:29.100Z,981.28
2019-03-04T10:52:29.098Z,981.26
2019-03-04T10:53:29.077Z,981.16
2019-03-04T10:54:29.082Z,981.29
2019-03-04T10:55:29.055Z,981.24
2019-03-04T10:56:29.044Z,981.21
2019-03-04T10:57:29.063Z,981.14
2019-03-04T10:58:29.020Z,981.16
2019-03-04T10:59:29.022Z,981.14
2019-03-04T11:00:29.005Z,981.06
2019-03-04T11:01:30.640Z,981.14
2019-03-04T11:02:28.988Z,981.17
2019-03-04T11:03:28.964Z,981.17
2019-03-04T11:04:29.031Z,981.13
2019-03-04T11:05:28.942Z,981.18
2019-03-04T11:06:28.930Z,981.16
2019-03-04T11:07:28.956Z,981.13
2019-03-04T11:08:28.917Z,981.11
2019-03-04T11:09:28.898Z,981.13
2019-03-04T11:10:28.889Z,981.14
2019-03-04T11:11:30.096Z,981.05
2019-03-04T11:12:28.878Z,981.06
2019-03-04T11:13:28.853Z,981.00
2019-03-04T11:14:28.871Z,980.97
2019-03-04T11:15:28.833Z,981.01
2019-03-04T11:16:28.821Z,980.99
2019-03-04T11:17:28.824Z,980.93
2019-03-04T11:18:28.796Z,980.95
2019-03-04T11:19:28.794Z,980.93
2019-03-04T11:20:28.797Z,980.91
2019-03-04T11:21:28.769Z,980.90
2019-03-04T11:22:28.763Z,981.00
2019-03-04T11:23:28.745Z,980.89
2019-03-04T11:24:28.777Z,980.89
2019-03-04T11:25:28.719Z,980.85
2019-03-04T11:26:28.708Z,980.89
2019-03-04T11:27:28.706Z,980.92
2019-03-04T11:28:28.684Z,980.93
2019-03-04T11:29:28.676Z,981.06
2019-03-04T11:30:28.665Z,980.94
2019-03-04T11:31:28.654Z,980.95
2019-03-04T11:32:28.650Z,980.85
2019-03-04T11:33:28.633Z,980.74
2019-03-04T11:34:28.622Z,980.68
2019-03-04T11:35:28.605Z,980.69
2019-03-04T11:36:28.613Z,980.62
2019-03-04T11:37:28.601Z,980.83
2019-03-04T11:38:28.572Z,980.61
2019-03-04T11:39:28.564Z,980.73
2019-03-04T11:40:28.555Z,980.64
2019-03-04T11:41:28.540Z,980.68
2019-03-04T11:42:28.560Z,980.68
2019-03-04T11:43:28.533Z,980.60
2019-03-04T11:44:28.505Z,980.65
2019-03-04T11:45:28.509Z,980.64
2019-03-04T11:46:28.483Z,980.62
2019-03-04T11:47:28.479Z,980.63
2019-03-04T11:48:28.475Z,980.59
2019-03-04T11:49:28.456Z,980.50
2019-03-04T11:50:28.444Z,980.54
2019-03-04T11:51:28.431Z,980.48
2019-03-04T11:52:28.420Z,980.47
2019-03-04T11:53:28.423Z,980.41
2019-03-04T11:54:28.414Z,980.46
2019-03-04T11:55:28.383Z,980.47
2019-03-04T11:56:28.373Z,980.48
2019-03-04T11:57:28.361Z,980.38
2019-03-04T11:58:28.363Z,980.43
2019-03-04T11:59:28.355Z,980.44
2019-03-04T12:00:28.329Z,980.31
2019-03-04T12:01:28.315Z,980.37
2019-03-04T12:02:28.307Z,980.49
2019-03-04T12:03:28.331Z,980.48
2019-03-04T12:04:28.282Z,980.58
2019-03-04T12:05:28.274Z,980.61
2019-03-04T12:06:28.278Z,980.80
2019-03-04T12:07:28.257Z,980.89
2019-03-04T12:08:28.265Z,981.05
2019-03-04T12:09:28.247Z,981.08
2019-03-04T12:10:28.220Z,981.14
2019-03-04T12:11:37.762Z,981.76
2019-03-04T12:12:29.198Z,982.18
2019-03-04T12:13:28.211Z,982.43
2019-03-04T12:14:28.192Z,982.27
2019-03-04T12:15:28.162Z,982.32
2019-03-04T12:16:28.159Z,982.32
2019-03-04T12:17:28.140Z,982.40
2019-03-04T12:18:28.140Z,982.37
2019-03-04T12:19:28.880Z,982.28
2019-03-04T12:20:28.106Z,982.29
2019-03-04T12:21:28.097Z,982.28
2019-03-04T12:22:28.087Z,982.28
2019-03-04T12:23:28.083Z,982.17
2019-03-04T12:24:28.067Z,982.15
2019-03-04T12:25:28.084Z,982.10
2019-03-04T12:26:28.057Z,982.07
2019-03-04T12:27:28.038Z,982.10
2019-03-04T12:28:28.034Z,982.14